Aérodrome :
LOGIN :

S'inscrire | Disclaimer

   EN    FR    IT 

 










Légende :    VFR   VFR Marginal   IFR   IFR Intensif   IFR Très Intensif
Visi : 
Plafond : 
>= 8 km
>= 3000ft
5 à 8 km
1000 à 3000 ft
1500m à 5 km
500 à 1000 ft
800 à 1500m
200 à 500 ft
< 800m
< 200 ft
Symboles :   Orages  Brouillard  Fortes neiges  Fortes précipitations  Vent > 20 kt
SIGMETs :   Divers  Orages  Givrage  Turbulence  Onde Orograph.  Cendres Volcan.






- Altitude de l'aérodrome : 8 ft
- Code IATA : LCA


LCLK - Larnaca Int.

DERNIER METAR :
  • 310030Z 32006KT CAVOK 18/14 Q1017 NOSIG

METARs EXPIRÉS :
  • 310000Z 32007KT CAVOK 18/14 Q1016 NOSIG
  • 302330Z 34010KT CAVOK 18/14 Q1017 NOSIG
  • 302300Z 33009KT CAVOK 18/14 Q1017 NOSIG
  • 302230Z 31008KT 9999 FEW050 18/14 Q1017 NOSIG
  • 302200Z 33010KT 9999 FEW050 19/14 Q1017 NOSIG

TAF TAF LCLK
Valide du 31 à 00h jusqu'au 01 à 00h UTC


302330Z 3100/3124 32008KT 9999 FEW030
BECMG 3108/3111 18013KT
BECMG 3116/3118 31006KT



MET'MAP, la Météo Aéronautique d'un coup d'oeil ! - Copyright ORBIFLY Décembre 2007 - Disclaimer

ORBIFLY MET'MAP TEAM :

Programmation & Développement : Alexandra Zaïnal
Sur une idée originale de : Baudouin d'Aumeries
Assistance à la programmation : Marc-Olivier Méhu
Soutien technique & logistique : Manuel Goepfert

Contact : metmap@orbifly.com




SOURCES & CREDITS :

   NOAA